createdAt,value
2018-11-23T00:01:56.700Z,48.27
2018-11-23T00:04:26.407Z,46.03
2018-11-23T00:06:55.912Z,43.87
2018-11-23T00:09:25.723Z,46.10
2018-11-23T00:11:55.430Z,46.63
2018-11-23T00:14:25.245Z,43.17
2018-11-23T00:16:54.746Z,46.83
2018-11-23T00:19:24.562Z,43.67
2018-11-23T00:21:54.472Z,45.03
2018-11-23T00:24:24.287Z,46.30
2018-11-23T00:26:54.202Z,48.57
2018-11-23T00:29:23.807Z,45.33
2018-11-23T00:31:53.720Z,44.83
2018-11-23T00:34:23.332Z,44.47
2018-11-23T00:36:54.267Z,44.53
2018-11-23T00:39:23.770Z,43.77
2018-11-23T00:41:53.480Z,43.10
2018-11-23T00:44:23.074Z,44.70
2018-11-23T00:46:52.693Z,42.73
2018-11-23T00:49:21.990Z,41.13
2018-11-23T00:51:51.395Z,44.00
2018-11-23T00:54:21.000Z,41.67
2018-11-23T00:56:50.505Z,43.47
2018-11-23T00:59:20.011Z,43.37
2018-11-23T01:01:53.817Z,45.17
2018-11-23T01:04:23.730Z,42.40
2018-11-23T01:06:53.438Z,44.97
2018-11-23T01:09:23.251Z,44.07
2018-11-23T01:11:53.015Z,40.33
2018-11-23T01:14:22.772Z,41.77
2018-11-23T01:16:52.684Z,40.37
2018-11-23T01:19:22.443Z,40.23
2018-11-23T01:21:51.899Z,42.03
2018-11-23T01:24:21.511Z,42.50
2018-11-23T01:26:51.319Z,43.27
2018-11-23T01:29:21.015Z,41.90
2018-11-23T01:31:50.636Z,42.07
2018-11-23T01:34:20.447Z,42.30
2018-11-23T01:36:50.255Z,42.30
2018-11-23T01:39:20.056Z,40.23
2018-11-23T01:41:49.884Z,42.60
2018-11-23T01:44:19.689Z,41.83
2018-11-23T01:46:49.298Z,42.87
2018-11-23T01:49:19.009Z,43.33
2018-11-23T01:51:48.411Z,44.07
2018-11-23T01:54:17.812Z,43.47
2018-11-23T01:56:47.826Z,42.37
2018-11-23T01:59:17.743Z,41.17
2018-11-23T02:01:47.452Z,41.17
2018-11-23T02:04:17.886Z,42.13
2018-11-23T02:06:48.025Z,44.37
2018-11-23T02:09:17.498Z,42.43
2018-11-23T02:11:47.101Z,44.27
2018-11-23T02:14:17.333Z,45.07
2018-11-23T02:16:47.868Z,43.60
2018-11-23T02:19:17.469Z,44.93
2018-11-23T02:21:47.690Z,43.73
2018-11-23T02:24:17.816Z,43.70
2018-11-23T02:26:48.247Z,46.77
2018-11-23T02:29:18.577Z,44.13
2018-11-23T02:31:48.290Z,47.97
2018-11-23T02:34:18.197Z,46.57
2018-11-23T02:36:48.127Z,48.13
2018-11-23T02:39:18.236Z,49.57
2018-11-23T02:41:48.334Z,48.43
2018-11-23T02:44:18.367Z,50.53
2018-11-23T02:46:48.267Z,49.63
2018-11-23T02:49:18.276Z,51.10
2018-11-23T02:51:48.415Z,48.60
2018-11-23T02:54:18.410Z,49.40
2018-11-23T02:56:48.755Z,46.30
2018-11-23T02:59:22.075Z,50.70
2018-11-23T03:01:48.458Z,50.70
2018-11-23T03:04:18.375Z,51.43
2018-11-23T03:06:48.315Z,50.47
2018-11-23T03:09:18.828Z,51.23
2018-11-23T03:11:49.253Z,52.20
2018-11-23T03:14:19.157Z,50.50
2018-11-23T03:16:49.907Z,50.37
2018-11-23T03:19:19.501Z,52.73
2018-11-23T03:21:49.319Z,53.50
2018-11-23T03:24:19.120Z,53.90
2018-11-23T03:26:48.944Z,54.13
2018-11-23T03:29:18.877Z,57.37
2018-11-23T03:31:48.453Z,55.97
2018-11-23T03:34:18.688Z,54.23
2018-11-23T03:36:48.516Z,53.50
2018-11-23T03:39:18.939Z,51.73
2018-11-23T03:41:48.521Z,54.43
2018-11-23T03:44:18.146Z,54.37
2018-11-23T03:46:47.972Z,54.37
2018-11-23T03:49:18.385Z,50.53
2018-11-23T03:51:48.019Z,50.57
2018-11-23T03:54:18.092Z,48.23
2018-11-23T03:56:47.923Z,54.70
2018-11-23T03:59:17.513Z,50.30
2018-11-23T04:01:48.569Z,53.07
2018-11-23T04:04:18.588Z,50.53
2018-11-23T04:06:48.488Z,51.83
2018-11-23T04:09:18.095Z,56.77
2018-11-23T04:11:47.792Z,53.83
2018-11-23T04:14:18.749Z,51.10
2018-11-23T04:16:48.652Z,49.77
2018-11-23T04:19:18.462Z,52.37
2018-11-23T04:21:48.502Z,50.33
2018-11-23T04:24:18.289Z,51.67
2018-11-23T04:26:48.227Z,49.37
2018-11-23T04:29:18.028Z,51.23
2018-11-23T04:31:48.028Z,53.13
2018-11-23T04:34:18.254Z,53.30
2018-11-23T04:36:48.093Z,52.37
2018-11-23T04:39:17.878Z,55.07
2018-11-23T04:41:47.907Z,51.37
2018-11-23T04:44:17.904Z,49.27
2018-11-23T04:46:47.949Z,51.83
2018-11-23T04:49:18.025Z,53.47
2018-11-23T04:51:48.366Z,53.60
2018-11-23T04:54:19.226Z,53.87
2018-11-23T04:56:49.960Z,56.03
2018-11-23T04:59:21.800Z,52.47
2018-11-23T05:01:52.440Z,51.17
2018-11-23T05:04:22.851Z,52.77
2018-11-23T05:06:52.778Z,52.97
2018-11-23T05:09:22.783Z,54.03
2018-11-23T05:11:52.920Z,52.17
2018-11-23T05:14:22.831Z,53.10
2018-11-23T05:16:52.832Z,55.27
2018-11-23T05:19:23.281Z,53.33
2018-11-23T05:21:53.066Z,51.80
2018-11-23T05:24:23.394Z,53.57
2018-11-23T05:26:53.936Z,52.37
2018-11-23T05:29:23.957Z,54.47
2018-11-23T05:31:53.870Z,55.07
2018-11-23T05:34:23.465Z,54.23
2018-11-23T05:36:53.475Z,56.27
2018-11-23T05:39:23.296Z,63.83
2018-11-23T05:41:53.319Z,60.00
2018-11-23T05:44:23.036Z,64.93
2018-11-23T05:46:54.152Z,59.20
2018-11-23T05:49:24.184Z,56.53
2018-11-23T05:51:54.920Z,59.77
2018-11-23T05:54:25.666Z,58.27
2018-11-23T05:56:55.860Z,56.13
2018-11-23T05:59:25.898Z,56.00
2018-11-23T06:01:55.480Z,54.87
2018-11-23T06:04:25.936Z,60.13
2018-11-23T06:06:55.960Z,57.03
2018-11-23T06:09:25.835Z,56.77
2018-11-23T06:11:55.975Z,59.37
2018-11-23T06:14:25.997Z,56.80
2018-11-23T06:16:56.017Z,57.43
2018-11-23T06:19:26.037Z,54.90
2018-11-23T06:21:56.047Z,57.40
2018-11-23T06:24:31.967Z,57.20
2018-11-23T06:26:56.378Z,55.60
2018-11-23T06:29:26.520Z,56.07
2018-11-23T06:31:57.055Z,56.90
2018-11-23T06:34:26.336Z,56.07
2018-11-23T06:36:56.013Z,57.47
2018-11-23T06:39:25.943Z,55.40
2018-11-23T06:41:55.656Z,57.70
2018-11-23T06:44:29.345Z,57.17
2018-11-23T06:46:59.463Z,58.17
2018-11-23T06:49:29.915Z,59.23
2018-11-23T06:51:59.815Z,58.20
2018-11-23T06:54:29.836Z,57.73
2018-11-23T06:56:59.424Z,60.60
2018-11-23T06:59:29.156Z,57.20
2018-11-23T07:01:59.375Z,58.43
2018-11-23T07:04:29.596Z,65.63
2018-11-23T07:06:59.285Z,60.67
2018-11-23T07:09:29.019Z,61.13
2018-11-23T07:11:58.499Z,61.87
2018-11-23T07:14:28.097Z,60.90
2018-11-23T07:16:58.146Z,62.73
2018-11-23T07:19:28.156Z,63.70
2018-11-23T07:21:57.775Z,63.40
2018-11-23T07:24:27.455Z,67.20
2018-11-23T07:26:57.276Z,64.97
2018-11-23T07:29:26.897Z,60.80
2018-11-23T07:31:56.380Z,62.70
2018-11-23T07:34:26.015Z,60.20
2018-11-23T07:36:55.618Z,60.80
2018-11-23T07:39:29.400Z,62.73
2018-11-23T07:42:03.409Z,58.77
2018-11-23T07:44:33.336Z,59.93
2018-11-23T07:47:03.026Z,60.63
2018-11-23T07:49:33.676Z,59.93
2018-11-23T07:52:03.476Z,60.37
2018-11-23T07:54:33.200Z,59.57
2018-11-23T07:57:03.315Z,61.53
2018-11-23T07:59:33.142Z,63.83
2018-11-23T08:02:02.846Z,69.00
2018-11-23T08:04:32.556Z,66.27
2018-11-23T08:07:02.676Z,67.33
2018-11-23T08:09:32.462Z,66.47
2018-11-23T08:12:02.815Z,67.37
2018-11-23T08:14:32.400Z,63.83
2018-11-23T08:17:02.026Z,63.57
2018-11-23T08:19:31.936Z,64.43
2018-11-23T08:22:01.424Z,63.47
2018-11-23T08:24:31.036Z,61.23
2018-11-23T08:27:01.245Z,62.50
2018-11-23T08:29:31.163Z,63.00
2018-11-23T08:32:00.978Z,66.70
2018-11-23T08:34:30.175Z,65.97
2018-11-23T08:36:59.999Z,64.40
2018-11-23T08:39:29.792Z,62.40
2018-11-23T08:41:59.506Z,59.97
2018-11-23T08:44:29.415Z,62.80
2018-11-23T08:46:58.946Z,61.67
2018-11-23T08:49:28.637Z,65.93
2018-11-23T08:51:58.256Z,62.17
2018-11-23T08:54:27.845Z,63.93
2018-11-23T08:56:57.455Z,59.40
2018-11-23T08:59:27.366Z,61.60
2018-11-23T09:01:56.973Z,63.13
2018-11-23T09:04:26.377Z,60.53
2018-11-23T09:06:56.396Z,60.53
2018-11-23T09:09:27.023Z,62.03
2018-11-23T09:11:58.478Z,63.37
2018-11-23T09:14:27.978Z,62.07
2018-11-23T09:16:57.916Z,62.37
2018-11-23T09:19:27.816Z,61.20
2018-11-23T09:21:57.636Z,65.97
2018-11-23T09:24:27.327Z,66.80
2018-11-23T09:26:57.012Z,62.90
2018-11-23T09:29:26.963Z,64.87
2018-11-23T09:31:56.672Z,68.80
2018-11-23T09:34:26.367Z,71.63
2018-11-23T09:36:56.175Z,69.73
2018-11-23T09:39:26.018Z,67.43
2018-11-23T09:41:55.703Z,69.40
2018-11-23T09:44:25.514Z,66.20
2018-11-23T09:46:55.555Z,69.67
2018-11-23T09:49:25.556Z,73.50
2018-11-23T09:51:55.765Z,68.50
2018-11-23T09:54:25.786Z,74.33
2018-11-23T09:56:56.017Z,71.53
2018-11-23T09:59:26.123Z,70.17
2018-11-23T10:01:56.890Z,70.43
2018-11-23T10:04:26.516Z,68.77
2018-11-23T10:06:56.486Z,65.83
2018-11-23T10:09:25.986Z,65.63
2018-11-23T10:11:55.515Z,67.93
2018-11-23T10:14:25.003Z,70.57
2018-11-23T10:16:54.824Z,68.67
2018-11-23T10:19:29.015Z,70.53
2018-11-23T10:21:59.263Z,67.33
2018-11-23T10:24:29.302Z,67.10
2018-11-23T10:26:59.402Z,66.47
2018-11-23T10:29:29.216Z,66.40
2018-11-23T10:31:59.016Z,72.03
2018-11-23T10:34:28.916Z,71.90
2018-11-23T10:36:58.956Z,77.23
2018-11-23T10:39:28.656Z,67.33
2018-11-23T10:41:58.375Z,72.00
2018-11-23T10:44:28.265Z,65.00
2018-11-23T10:46:58.084Z,67.43
2018-11-23T10:49:27.897Z,68.50
2018-11-23T10:51:57.917Z,67.13
2018-11-23T10:54:27.716Z,67.33
2018-11-23T10:56:57.836Z,67.17
2018-11-23T10:59:27.874Z,67.80
2018-11-23T11:02:01.600Z,72.07
2018-11-23T11:04:35.378Z,70.20
2018-11-23T11:07:09.365Z,71.27
2018-11-23T11:09:39.914Z,68.90
2018-11-23T11:12:09.835Z,68.17
2018-11-23T11:14:39.955Z,71.73
2018-11-23T11:17:09.857Z,70.47
2018-11-23T11:19:39.776Z,74.13
2018-11-23T11:22:09.475Z,71.27
2018-11-23T11:24:39.376Z,70.87
2018-11-23T11:27:09.708Z,68.40
2018-11-23T11:29:39.614Z,73.47
2018-11-23T11:32:09.536Z,94.37
2018-11-23T11:34:40.037Z,82.70
2018-11-23T11:37:09.977Z,82.53
2018-11-23T11:39:40.015Z,78.43
2018-11-23T11:42:10.326Z,81.17
2018-11-23T11:44:40.756Z,71.57
2018-11-23T11:47:10.879Z,70.70
2018-11-23T11:49:40.598Z,74.80
2018-11-23T11:52:10.486Z,74.37
2018-11-23T11:54:41.035Z,74.67
2018-11-23T11:57:10.837Z,73.40
2018-11-23T11:59:40.666Z,73.33
2018-11-23T12:02:10.351Z,67.97
2018-11-23T12:04:39.976Z,75.57
2018-11-23T12:07:09.775Z,70.80
2018-11-23T12:09:40.074Z,92.37
2018-11-23T12:12:09.796Z,105.53
2018-11-23T12:14:40.036Z,83.43
2018-11-23T12:17:10.017Z,80.07
2018-11-23T12:19:40.257Z,74.20
2018-11-23T12:22:10.041Z,68.47
2018-11-23T12:24:40.419Z,72.87
2018-11-23T12:27:10.326Z,68.83
2018-11-23T12:29:40.319Z,70.17
2018-11-23T12:32:10.236Z,66.93
2018-11-23T12:34:40.355Z,69.07
2018-11-23T12:37:11.712Z,68.90
2018-11-23T12:39:41.935Z,66.90
2018-11-23T12:42:11.746Z,67.53
2018-11-23T12:44:42.042Z,67.63
2018-11-23T12:47:11.596Z,67.90
2018-11-23T12:49:41.476Z,69.73
2018-11-23T12:52:11.812Z,68.37
2018-11-23T12:54:41.936Z,66.33
2018-11-23T12:57:13.275Z,70.90
2018-11-23T12:59:42.255Z,70.93
2018-11-23T13:02:12.197Z,67.10
2018-11-23T13:04:42.915Z,68.37
2018-11-23T13:07:12.714Z,69.77
2018-11-23T13:09:42.339Z,72.90
2018-11-23T13:12:12.747Z,66.17
2018-11-23T13:14:42.146Z,70.97
2018-11-23T13:17:12.176Z,71.17
2018-11-23T13:19:41.994Z,70.23
2018-11-23T13:22:14.462Z,74.57
2018-11-23T13:24:44.171Z,70.57
2018-11-23T13:27:17.973Z,67.37
2018-11-23T13:29:53.953Z,71.37
2018-11-23T13:32:51.490Z,69.07
2018-11-23T13:35:32.570Z,69.37
2018-11-23T13:38:12.741Z,75.10
2018-11-23T13:40:57.390Z,73.30
2018-11-23T13:43:29.141Z,70.73
2018-11-23T13:46:10.039Z,75.20
2018-11-23T13:48:42.687Z,69.67
2018-11-23T13:51:16.731Z,76.03
2018-11-23T13:53:47.343Z,71.97
2018-11-23T13:56:18.880Z,70.57
2018-11-23T13:58:48.995Z,69.33
2018-11-23T14:01:18.921Z,77.90
2018-11-23T14:03:48.831Z,77.20
2018-11-23T14:06:21.222Z,75.87
2018-11-23T14:08:53.058Z,82.17
2018-11-23T14:11:25.187Z,74.77
2018-11-23T14:13:57.274Z,81.40
2018-11-23T14:16:30.120Z,73.40
2018-11-23T14:19:01.978Z,75.63
2018-11-23T14:21:32.880Z,74.47
2018-11-23T14:24:03.411Z,76.70
2018-11-23T14:26:33.214Z,75.50
2018-11-23T14:29:03.039Z,69.90
2018-11-23T14:31:32.524Z,73.60
2018-11-23T14:34:02.461Z,69.43
2018-11-23T14:36:32.490Z,74.03
2018-11-23T14:39:02.382Z,70.67
2018-11-23T14:41:32.901Z,68.73
2018-11-23T14:44:06.984Z,74.20
2018-11-23T14:46:32.829Z,76.43
2018-11-23T14:49:02.851Z,82.23
2018-11-23T14:51:32.761Z,80.93
2018-11-23T14:54:02.672Z,83.93
2018-11-23T14:56:32.492Z,79.03
2018-11-23T14:59:02.821Z,80.97
2018-11-23T15:01:32.422Z,85.00
2018-11-23T15:04:02.342Z,90.43
2018-11-23T15:06:32.552Z,85.37
2018-11-23T15:09:02.802Z,79.20
2018-11-23T15:11:32.992Z,78.63
2018-11-23T15:14:06.622Z,76.40
2018-11-23T15:16:36.928Z,74.90
2018-11-23T15:19:07.362Z,75.50
2018-11-23T15:21:37.580Z,80.93
2018-11-23T15:24:07.503Z,79.07
2018-11-23T15:26:37.822Z,79.80
2018-11-23T15:29:08.042Z,77.40
2018-11-23T15:31:38.364Z,82.40
2018-11-23T15:34:08.472Z,78.30
2018-11-23T15:36:40.275Z,80.13
2018-11-23T15:39:12.022Z,79.20
2018-11-23T15:41:41.792Z,71.37
2018-11-23T15:44:12.042Z,74.37
2018-11-23T15:46:42.041Z,70.27
2018-11-23T15:49:11.841Z,67.33
2018-11-23T15:51:41.981Z,67.57
2018-11-23T15:54:11.678Z,62.63
2018-11-23T15:56:41.581Z,68.50
2018-11-23T15:59:11.511Z,68.03
2018-11-23T16:01:41.621Z,62.73
2018-11-23T16:04:11.846Z,60.57
2018-11-23T16:06:42.043Z,61.23
2018-11-23T16:09:13.942Z,67.67
2018-11-23T16:11:43.961Z,70.00
2018-11-23T16:14:13.860Z,67.63
2018-11-23T16:16:43.980Z,67.47
2018-11-23T16:19:13.802Z,63.13
2018-11-23T16:21:44.221Z,68.00
2018-11-23T16:24:14.443Z,67.60
2018-11-23T16:26:44.162Z,69.47
2018-11-23T16:29:14.182Z,68.30
2018-11-23T16:31:44.182Z,67.03
2018-11-23T16:34:14.622Z,63.13
2018-11-23T16:36:44.942Z,61.83
2018-11-23T16:39:15.041Z,60.60
2018-11-23T16:41:45.382Z,64.03
2018-11-23T16:44:15.601Z,61.67
2018-11-23T16:46:45.421Z,62.27
2018-11-23T16:49:15.840Z,64.77
2018-11-23T16:51:45.962Z,61.33
2018-11-23T16:54:15.752Z,63.90
2018-11-23T16:56:48.961Z,72.33
2018-11-23T16:59:18.880Z,65.50
2018-11-23T17:01:48.665Z,65.73
2018-11-23T17:04:18.593Z,64.63
2018-11-23T17:06:48.612Z,68.07
2018-11-23T17:09:21.429Z,65.57
2018-11-23T17:11:51.392Z,69.37
2018-11-23T17:14:21.432Z,69.33
2018-11-23T17:16:51.837Z,64.60
2018-11-23T17:19:21.853Z,67.73
2018-11-23T17:21:52.029Z,66.50
2018-11-23T17:24:22.613Z,66.40
2018-11-23T17:26:52.516Z,65.57
2018-11-23T17:29:23.210Z,66.93
2018-11-23T17:31:52.672Z,66.87
2018-11-23T17:34:22.793Z,68.37
2018-11-23T17:36:52.480Z,64.53
2018-11-23T17:39:22.213Z,60.07
2018-11-23T17:41:52.022Z,61.57
2018-11-23T17:44:21.935Z,64.20
2018-11-23T17:46:51.953Z,58.87
2018-11-23T17:49:21.963Z,58.43
2018-11-23T17:51:51.866Z,55.50
2018-11-23T17:54:21.592Z,54.70
2018-11-23T17:56:51.487Z,59.77
2018-11-23T17:59:22.422Z,58.20
2018-11-23T18:01:52.452Z,61.30
2018-11-23T18:04:22.273Z,62.03
2018-11-23T18:06:52.592Z,58.30
2018-11-23T18:09:22.512Z,57.53
2018-11-23T18:11:52.832Z,57.43
2018-11-23T18:14:22.521Z,58.13
2018-11-23T18:16:51.929Z,57.40
2018-11-23T18:19:21.752Z,55.60
2018-11-23T18:21:51.564Z,57.80
2018-11-23T18:24:21.574Z,55.53
2018-11-23T18:26:51.477Z,59.43
2018-11-23T18:29:21.413Z,54.57
2018-11-23T18:31:51.311Z,57.20
2018-11-23T18:34:22.772Z,53.10
2018-11-23T18:36:53.037Z,53.30
2018-11-23T18:39:23.213Z,58.63
2018-11-23T18:41:53.026Z,59.17
2018-11-23T18:44:22.924Z,54.90
2018-11-23T18:46:53.673Z,54.20
2018-11-23T18:49:23.893Z,52.40
2018-11-23T18:51:53.903Z,53.03
2018-11-23T18:54:23.834Z,52.27
2018-11-23T18:56:53.633Z,52.27
2018-11-23T18:59:23.328Z,52.57
2018-11-23T19:01:53.564Z,53.17
2018-11-23T19:04:23.592Z,54.37
2018-11-23T19:06:53.583Z,52.30
2018-11-23T19:09:23.613Z,55.80
2018-11-23T19:11:53.412Z,55.23
2018-11-23T19:17:03.784Z,54.67
2018-11-23T19:19:35.969Z,47.03
2018-11-23T19:22:14.366Z,48.37
2018-11-23T19:24:52.898Z,53.37
2018-11-23T19:27:24.353Z,50.20
2018-11-23T19:29:54.761Z,48.37
2018-11-23T19:32:24.893Z,49.33
2018-11-23T19:34:55.917Z,48.63
2018-11-23T19:37:26.244Z,48.17
2018-11-23T19:39:56.366Z,47.63
2018-11-23T19:42:26.891Z,46.50
2018-11-23T19:44:57.832Z,49.00
2018-11-23T19:47:27.946Z,48.73
2018-11-23T19:49:58.800Z,48.47
2018-11-23T19:52:32.288Z,49.10
2018-11-23T19:55:02.808Z,49.20
2018-11-23T19:57:32.829Z,48.17
2018-11-23T20:00:02.968Z,44.50
2018-11-23T20:02:33.709Z,41.80
2018-11-23T20:05:04.313Z,43.00
2018-11-23T20:07:35.556Z,41.57
2018-11-23T20:10:09.464Z,40.57
2018-11-23T20:12:41.635Z,40.10
2018-11-23T20:15:16.871Z,39.97
2018-11-23T20:17:47.399Z,42.00
2018-11-23T20:20:19.975Z,38.60
2018-11-23T20:22:52.552Z,40.30
2018-11-23T20:25:24.320Z,40.43
2018-11-23T20:27:56.479Z,40.40
2018-11-23T20:30:27.517Z,41.27
2018-11-23T20:33:03.894Z,42.97
2018-11-23T20:35:34.828Z,39.83
2018-11-23T20:38:07.202Z,42.23
2018-11-23T20:40:37.816Z,41.87
2018-11-23T20:43:11.045Z,38.87
2018-11-23T20:45:42.971Z,42.53
2018-11-23T20:48:15.469Z,42.40
2018-11-23T20:50:47.527Z,46.33
2018-11-23T20:53:18.859Z,42.83
2018-11-23T20:55:48.769Z,40.03
2018-11-23T20:58:20.728Z,41.43
2018-11-23T21:00:54.233Z,42.50
2018-11-23T21:03:24.765Z,42.47
2018-11-23T21:05:55.221Z,38.00
2018-11-23T21:08:26.224Z,40.07
2018-11-23T21:10:56.962Z,38.53
2018-11-23T21:13:27.385Z,39.77
2018-11-23T21:15:58.427Z,40.10
2018-11-23T21:18:29.049Z,37.47
2018-11-23T21:21:02.766Z,39.43
2018-11-23T21:23:33.798Z,39.57
2018-11-23T21:26:04.946Z,38.40
2018-11-23T21:28:35.167Z,38.70
2018-11-23T21:31:05.078Z,43.83
2018-11-23T21:33:34.999Z,37.77
2018-11-23T21:36:05.049Z,42.27
2018-11-23T21:38:34.716Z,38.80
2018-11-23T21:41:04.937Z,37.40
2018-11-23T21:43:34.852Z,37.90
2018-11-23T21:46:05.691Z,35.73
2018-11-23T21:48:36.014Z,33.97
2018-11-23T21:51:05.822Z,35.83
2018-11-23T21:53:36.454Z,33.13
2018-11-23T21:56:09.437Z,35.53
2018-11-23T21:58:38.129Z,34.87
2018-11-23T22:01:08.863Z,37.47
2018-11-23T22:03:38.689Z,35.00
2018-11-23T22:06:08.487Z,36.33
2018-11-23T22:08:38.806Z,35.47
2018-11-23T22:11:08.826Z,36.37
2018-11-23T22:13:38.632Z,35.60
2018-11-23T22:16:08.341Z,34.47
2018-11-23T22:18:38.257Z,33.83
2018-11-23T22:21:09.199Z,32.90
2018-11-23T22:23:39.009Z,32.00
2018-11-23T22:26:08.733Z,31.83
2018-11-23T22:28:38.635Z,29.90
2018-11-23T22:31:09.279Z,31.33
2018-11-23T22:33:39.179Z,29.57
2018-11-23T22:36:09.091Z,29.97
2018-11-23T22:38:39.829Z,28.23
2018-11-23T22:41:10.879Z,30.87
2018-11-23T22:43:40.580Z,26.63
2018-11-23T22:46:10.899Z,27.97
2018-11-23T22:48:40.827Z,27.63
2018-11-23T22:51:11.135Z,25.97
2018-11-23T22:53:41.255Z,24.53
2018-11-23T22:56:11.378Z,25.00
2018-11-23T22:58:41.287Z,23.67
2018-11-23T23:01:11.317Z,23.93
2018-11-23T23:03:41.116Z,25.37
2018-11-23T23:06:10.835Z,26.47
2018-11-23T23:08:41.355Z,26.67
2018-11-23T23:11:11.479Z,31.97
2018-11-23T23:13:41.799Z,29.87
2018-11-23T23:16:12.270Z,28.07
2018-11-23T23:18:42.247Z,24.83
2018-11-23T23:21:12.676Z,24.23
2018-11-23T23:23:42.687Z,22.90
2018-11-23T23:26:12.395Z,21.50
2018-11-23T23:28:42.207Z,23.43
2018-11-23T23:31:12.230Z,22.37
2018-11-23T23:33:41.924Z,23.07
2018-11-23T23:36:11.643Z,22.90
2018-11-23T23:38:41.147Z,21.23
2018-11-23T23:41:10.967Z,22.53
2018-11-23T23:43:40.867Z,21.37
2018-11-23T23:46:10.476Z,22.23
2018-11-23T23:48:40.296Z,23.10
2018-11-23T23:51:10.082Z,19.93
2018-11-23T23:53:40.015Z,21.00
2018-11-23T23:56:09.824Z,22.50
2018-11-23T23:58:39.752Z,21.27
